Time;durP1;ratioP1;P1;durP2;ratioP2;P2;SDS_P1;SDS_P2;PMS_P1;PMS_P2;Temp;Humidity;BMP_temperature;BMP_pressure;BME280_temperature;BME280_humidity;BME280_pressure;Samples;Min_cycle;Max_cycle;Signal;HPM_P1;HPM_P2
2023/03/23 00:01:26;;;;;;;0.93;0.93;;;;;;;14.02;65.37;97792.88;4170573;28;20815;-47
2023/03/23 00:03:28;;;;;;;1.02;0.70;;;;;;;14.08;65.28;97796.38;4184278;28;20223;-47
2023/03/23 00:05:29;;;;;;;0.60;0.60;;;;;;;14.08;65.64;97796.38;4204229;28;20293;-47
2023/03/23 00:07:30;;;;;;;1.00;0.90;;;;;;;14.08;65.86;97801.88;4186837;28;20230;-46
2023/03/23 00:09:34;;;;;;;1.00;1.00;;;;;;;14.05;66.24;97803.31;4182879;28;20200;-47
2023/03/23 00:11:34;;;;;;;0.75;0.75;;;;;;;14.01;67.05;97801.41;4190446;28;20651;-47
2023/03/23 00:13:36;;;;;;;0.73;0.73;;;;;;;14.03;66.93;97811.00;4172460;28;20231;-47
2023/03/23 00:15:41;;;;;;;0.75;0.75;;;;;;;14.02;67.20;97803.03;4191095;28;21049;-47
2023/03/23 00:17:43;;;;;;;1.20;1.00;;;;;;;14.00;68.04;97805.25;4187481;28;20203;-47
2023/03/23 00:19:46;;;;;;;1.40;0.90;;;;;;;13.96;67.71;97799.53;4184501;28;20768;-47
2023/03/23 00:21:47;;;;;;;0.85;0.80;;;;;;;14.01;67.77;97806.91;4185041;28;20195;-47
2023/03/23 00:23:47;;;;;;;1.08;0.90;;;;;;;14.00;67.69;97800.59;4168993;28;20224;-47
2023/03/23 00:25:56;;;;;;;1.45;0.75;;;;;;;13.98;67.92;97796.50;4185200;28;21093;-47
2023/03/23 00:27:56;;;;;;;1.33;1.23;;;;;;;13.96;68.60;97805.03;4166228;28;20274;-48
2023/03/23 00:30:06;;;;;;;1.10;0.73;;;;;;;13.91;68.62;97802.31;4191261;28;20200;-47
2023/03/23 00:32:16;;;;;;;0.90;0.80;;;;;;;14.01;67.74;97795.91;4174747;28;20349;-49
2023/03/23 00:34:21;;;;;;;1.75;1.17;;;;;;;14.04;67.62;97807.13;4189552;28;20218;-48
2023/03/23 00:36:23;;;;;;;2.78;1.52;;;;;;;14.07;67.21;97803.81;4188279;28;20677;-48
2023/03/23 00:38:25;;;;;;;1.38;0.88;;;;;;;14.10;66.90;97800.47;4186084;28;20993;-53
2023/03/23 00:40:28;;;;;;;1.08;0.90;;;;;;;14.11;67.36;97793.88;4182437;28;20660;-48
2023/03/23 00:42:36;;;;;;;1.10;0.70;;;;;;;14.03;67.35;97794.50;4186972;28;20203;-48
2023/03/23 00:44:39;;;;;;;3.13;0.80;;;;;;;14.05;67.88;97789.56;4179163;28;20250;-47
2023/03/23 00:46:48;;;;;;;0.95;0.60;;;;;;;14.03;67.64;97789.00;4173178;28;20682;-49
2023/03/23 00:48:51;;;;;;;0.88;0.88;;;;;;;14.06;67.39;97782.94;4187889;28;20203;-47
2023/03/23 00:50:53;;;;;;;2.25;0.90;;;;;;;14.03;67.98;97778.00;4186927;28;20199;-49
2023/03/23 00:52:56;;;;;;;0.85;0.85;;;;;;;14.03;67.98;97786.25;4184727;28;20736;-48
2023/03/23 00:54:59;;;;;;;0.60;0.60;;;;;;;14.05;67.79;97780.47;4186015;28;20246;-48
2023/03/23 00:57:02;;;;;;;1.35;0.95;;;;;;;13.99;68.43;97784.38;4171376;28;20666;-50
2023/03/23 00:59:05;;;;;;;0.80;0.80;;;;;;;14.02;68.49;97789.28;4154687;28;20205;-49
2023/03/23 01:01:07;;;;;;;1.42;0.93;;;;;;;13.98;68.90;97775.28;4182898;28;20697;-48
2023/03/23 01:03:17;;;;;;;0.80;0.80;;;;;;;13.97;69.09;97778.34;4182820;28;20203;-47
2023/03/23 01:05:21;;;;;;;1.00;0.80;;;;;;;13.99;69.08;97776.13;4168709;28;20195;-48
2023/03/23 01:07:23;;;;;;;1.80;0.90;;;;;;;13.97;69.06;97767.34;4187520;28;20191;-48
2023/03/23 01:09:26;;;;;;;1.10;0.80;;;;;;;14.02;69.14;97765.34;4185425;28;20257;-48
2023/03/23 01:11:29;;;;;;;0.77;0.77;;;;;;;13.89;70.07;97756.97;4186456;28;20340;-46
2023/03/23 01:13:31;;;;;;;0.80;0.80;;;;;;;13.91;69.82;97758.31;4185612;28;20593;-50
2023/03/23 01:15:35;;;;;;;0.90;0.90;;;;;;;13.93;70.05;97767.09;4183695;28;20614;-46
2023/03/23 01:17:38;;;;;;;6.80;0.90;;;;;;;13.85;70.40;97759.50;4184793;28;20871;-47
2023/03/23 01:19:42;;;;;;;1.23;0.80;;;;;;;13.84;70.21;97752.31;4185052;28;20211;-46
2023/03/23 01:21:44;;;;;;;1.65;0.90;;;;;;;13.89;70.53;97755.03;4169306;28;20204;-47
2023/03/23 01:23:47;;;;;;;0.98;0.88;;;;;;;13.85;70.85;97754.00;4181237;28;20223;-47
2023/03/23 01:25:52;;;;;;;0.93;0.93;;;;;;;13.82;70.82;97749.03;4168536;28;20199;-47
2023/03/23 01:27:55;;;;;;;0.80;0.80;;;;;;;13.79;71.02;97744.13;4201752;28;20254;-47
2023/03/23 01:29:58;;;;;;;1.42;0.90;;;;;;;13.79;71.18;97738.63;4168630;28;20656;-48
2023/03/23 01:31:59;;;;;;;1.05;0.98;;;;;;;13.78;71.43;97728.72;4184189;28;20200;-47
2023/03/23 01:34:03;;;;;;;1.33;0.98;;;;;;;13.78;71.87;97720.47;4184522;28;20647;-47
2023/03/23 01:36:11;;;;;;;0.77;0.77;;;;;;;13.76;72.35;97724.66;4182956;28;20704;-47
2023/03/23 01:38:14;;;;;;;1.98;0.80;;;;;;;13.75;72.39;97725.72;4200422;28;20645;-48
2023/03/23 01:40:16;;;;;;;2.42;1.00;;;;;;;13.67;72.99;97724.44;4181749;28;20202;-49
2023/03/23 01:42:18;;;;;;;0.93;0.93;;;;;;;13.69;73.04;97726.91;4186672;28;20196;-47
2023/03/23 01:44:21;;;;;;;1.45;1.35;;;;;;;13.69;72.89;97724.97;4175704;28;20620;-47
2023/03/23 01:46:28;;;;;;;3.45;1.10;;;;;;;13.63;73.44;97728.88;4190033;28;20191;-48
2023/03/23 01:48:33;;;;;;;0.80;0.80;;;;;;;13.66;73.72;97732.97;4192175;28;20282;-47
2023/03/23 01:51:03;;;;;;;1.05;0.98;;;;;;;13.59;73.82;97738.81;4190603;28;20222;-47
2023/03/23 01:53:08;;;;;;;1.27;0.93;;;;;;;13.60;73.96;97743.22;4165464;28;20693;-46
2023/03/23 01:55:11;;;;;;;1.15;0.90;;;;;;;13.63;74.12;97750.88;4189577;28;20206;-48
2023/03/23 01:57:17;;;;;;;1.15;0.70;;;;;;;13.57;74.13;97743.78;4182926;28;20222;-47
2023/03/23 01:59:20;;;;;;;2.65;0.90;;;;;;;13.61;74.31;97747.59;4188535;28;20207;-47
2023/03/23 02:01:24;;;;;;;0.65;0.65;;;;;;;13.62;74.13;97746.47;4190477;28;20288;-47
2023/03/23 02:03:28;;;;;;;1.30;0.73;;;;;;;13.53;74.72;97742.72;4190023;28;20188;-47
2023/03/23 02:05:39;;;;;;;0.95;0.73;;;;;;;13.53;75.54;97739.13;4190005;28;20215;-47
2023/03/23 02:07:42;;;;;;;1.17;1.08;;;;;;;13.52;75.29;97732.84;4210160;28;20261;-48
2023/03/23 02:09:45;;;;;;;0.80;0.77;;;;;;;13.57;74.87;97724.53;4194396;28;20214;-47
2023/03/23 02:11:49;;;;;;;1.15;1.05;;;;;;;13.48;74.82;97718.03;4194970;28;20699;-47
2023/03/23 02:13:53;;;;;;;1.20;0.80;;;;;;;13.46;75.35;97706.50;4190226;28;20648;-47
2023/03/23 02:16:04;;;;;;;0.70;0.70;;;;;;;13.42;75.41;97708.16;4188377;28;20199;-46
2023/03/23 02:18:37;;;;;;;2.47;1.10;;;;;;;13.40;75.60;97718.66;4185720;28;20798;-47
2023/03/23 02:21:01;;;;;;;1.70;0.77;;;;;;;13.40;75.71;97718.66;4186885;28;20192;-46
2023/03/23 02:23:04;;;;;;;0.90;0.90;;;;;;;13.42;75.73;97719.16;4205196;28;20233;-47
2023/03/23 02:25:43;;;;;;;1.20;1.10;;;;;;;13.38;75.97;97714.53;4188846;28;20232;-46
2023/03/23 02:27:55;;;;;;;1.10;1.00;;;;;;;13.33;76.34;97720.91;4191201;28;20580;-47
2023/03/23 02:30:15;;;;;;;1.13;0.82;;;;;;;13.43;76.45;97715.31;4191684;28;20207;-47
2023/03/23 02:32:32;;;;;;;0.85;0.85;;;;;;;13.30;76.93;97717.91;4185115;28;20280;-47
2023/03/23 02:34:56;;;;;;;1.10;1.00;;;;;;;13.31;77.06;97709.34;4183450;28;20329;-46
2023/03/23 02:37:25;;;;;;;1.10;1.10;;;;;;;13.31;77.22;97698.34;4188463;28;20207;-47
2023/03/23 02:39:35;;;;;;;0.80;0.80;;;;;;;13.36;76.90;97694.78;4173002;28;20203;-47
2023/03/23 02:42:02;;;;;;;0.70;0.70;;;;;;;13.31;77.17;97692.06;4171697;28;20338;-46
2023/03/23 02:44:06;;;;;;;0.77;0.73;;;;;;;13.31;77.45;97681.88;4189715;28;20229;-47
2023/03/23 02:46:10;;;;;;;1.15;1.05;;;;;;;13.32;77.83;97685.47;4173396;28;20639;-46
2023/03/23 02:48:15;;;;;;;1.05;0.98;;;;;;;13.30;78.21;97685.75;4155987;28;20208;-47
2023/03/23 02:50:20;;;;;;;0.70;0.70;;;;;;;13.31;78.13;97692.06;4186630;28;20294;-49
2023/03/23 02:52:26;;;;;;;1.17;0.80;;;;;;;13.35;77.61;97685.69;4172695;28;20774;-47
2023/03/23 02:54:30;;;;;;;1.13;0.90;;;;;;;13.37;77.51;97675.22;4191569;28;20220;-47
2023/03/23 02:56:33;;;;;;;1.02;0.93;;;;;;;13.41;77.67;97692.78;4205339;28;21376;-47
2023/03/23 02:58:37;;;;;;;1.25;1.10;;;;;;;13.41;78.08;97687.31;4190186;28;20609;-47
2023/03/23 03:00:40;;;;;;;1.25;1.02;;;;;;;13.42;78.05;97686.19;4187020;28;20571;-47
2023/03/23 03:02:57;;;;;;;1.20;1.00;;;;;;;13.42;78.31;97682.59;4187235;28;20235;-47
2023/03/23 03:05:13;;;;;;;1.60;1.35;;;;;;;13.36;78.16;97687.34;4169182;28;20223;-46
2023/03/23 03:07:45;;;;;;;1.60;0.95;;;;;;;13.41;78.20;97690.03;4206605;28;20191;-47
2023/03/23 03:09:50;;;;;;;2.00;1.05;;;;;;;13.43;78.33;97696.06;4188179;28;20200;-46
2023/03/23 03:11:58;;;;;;;0.90;0.90;;;;;;;13.40;78.58;97693.91;4184198;28;20199;-46
2023/03/23 03:14:06;;;;;;;0.90;0.90;;;;;;;13.42;78.80;97688.94;4171623;28;20218;-47
2023/03/23 03:16:29;;;;;;;2.63;1.23;;;;;;;13.36;79.49;97683.78;4208197;28;20244;-47
2023/03/23 03:18:49;;;;;;;1.00;0.90;;;;;;;13.41;79.22;97687.31;4207520;28;20203;-47
2023/03/23 03:21:07;;;;;;;1.20;1.13;;;;;;;13.47;78.79;97693.56;4187645;28;20207;-47
2023/03/23 03:23:13;;;;;;;1.52;1.02;;;;;;;13.47;79.83;97691.66;4168562;28;20199;-47
2023/03/23 03:25:16;;;;;;;1.10;1.00;;;;;;;13.46;79.63;97683.69;4171913;28;20651;-47
2023/03/23 03:27:19;;;;;;;1.27;1.00;;;;;;;13.43;79.76;97685.06;4167087;28;20217;-47
2023/03/23 03:29:26;;;;;;;2.15;0.90;;;;;;;13.41;79.91;97686.47;4186565;28;20199;-47
2023/03/23 03:31:32;;;;;;;1.75;1.10;;;;;;;13.36;80.77;97689.28;4183504;28;20321;-47
2023/03/23 03:33:36;;;;;;;1.45;1.35;;;;;;;13.34;80.46;97684.06;4187398;28;20591;-47
2023/03/23 03:35:41;;;;;;;1.73;1.20;;;;;;;13.36;80.99;97683.78;4155616;28;20251;-47
2023/03/23 03:37:44;;;;;;;1.25;1.15;;;;;;;13.36;81.70;97689.28;4187800;28;20297;-48
2023/03/23 03:39:46;;;;;;;1.20;1.05;;;;;;;13.27;82.87;97686.31;4185364;28;20203;-47
2023/03/23 03:41:47;;;;;;;1.00;0.95;;;;;;;13.21;84.02;97692.97;4166027;28;20213;-47
2023/03/23 03:43:47;;;;;;;1.58;1.38;;;;;;;13.20;84.90;97687.75;4188621;28;20262;-47
2023/03/23 03:45:48;;;;;;;1.17;1.08;;;;;;;13.15;85.36;97701.50;4196119;28;20535;-47
2023/03/23 03:47:48;;;;;;;1.73;1.20;;;;;;;13.16;86.36;97705.94;4185705;28;20290;-48
2023/03/23 03:49:49;;;;;;;1.10;0.90;;;;;;;13.06;87.50;97709.56;4169503;28;20203;-47
2023/03/23 03:51:53;;;;;;;2.05;0.88;;;;;;;13.07;88.33;97719.44;4184060;28;20669;-48
2023/03/23 03:53:57;;;;;;;0.90;0.82;;;;;;;12.98;88.44;97725.81;4182197;28;20218;-47
2023/03/23 03:56:01;;;;;;;0.95;0.93;;;;;;;12.94;87.99;97720.06;4182039;28;20657;-47
2023/03/23 03:58:04;;;;;;;1.23;0.93;;;;;;;12.89;89.64;97722.03;4186503;28;20214;-47
2023/03/23 04:00:14;;;;;;;2.50;1.33;;;;;;;12.79;90.75;97722.91;4166496;28;20706;-48
2023/03/23 04:02:19;;;;;;;1.50;0.73;;;;;;;12.79;90.79;97717.41;4168340;28;20266;-49
2023/03/23 04:04:24;;;;;;;0.93;0.93;;;;;;;12.77;91.27;97727.81;4202807;28;20600;-50
2023/03/23 04:06:27;;;;;;;1.08;0.93;;;;;;;12.67;91.95;97725.16;4170495;28;20739;-46
2023/03/23 04:08:31;;;;;;;1.23;1.15;;;;;;;12.64;92.39;97719.41;4184314;28;20617;-50
2023/03/23 04:10:36;;;;;;;1.00;1.00;;;;;;;12.68;92.71;97735.03;4186288;28;20268;-50
2023/03/23 04:12:42;;;;;;;1.25;1.20;;;;;;;12.62;93.02;97730.66;4167172;28;20212;-50
2023/03/23 04:14:45;;;;;;;2.45;1.30;;;;;;;12.65;92.89;97737.50;4167414;28;21391;-49
2023/03/23 04:16:51;;;;;;;1.58;1.25;;;;;;;12.60;93.13;97721.91;4167615;28;20210;-49
2023/03/23 04:18:55;;;;;;;3.35;1.30;;;;;;;12.56;93.33;97722.75;4169630;28;20215;-51
2023/03/23 04:21:00;;;;;;;1.23;1.13;;;;;;;12.56;93.85;97729.03;4183449;28;20215;-48
2023/03/23 04:23:05;;;;;;;1.85;1.67;;;;;;;12.58;94.21;97737.81;4170195;28;21309;-49
2023/03/23 04:25:07;;;;;;;1.65;1.20;;;;;;;12.56;94.54;97745.50;4180538;28;20416;-49
2023/03/23 04:27:09;;;;;;;3.22;1.65;;;;;;;12.50;94.44;97752.13;4172945;28;20632;-49
2023/03/23 04:29:12;;;;;;;1.55;1.35;;;;;;;12.53;94.51;97751.56;4184371;28;20569;-48
2023/03/23 04:31:15;;;;;;;1.85;1.52;;;;;;;12.47;95.67;97747.22;4166486;28;20770;-47
2023/03/23 04:33:19;;;;;;;3.30;1.15;;;;;;;12.51;95.53;97751.00;4185890;28;20266;-48
2023/03/23 04:35:27;;;;;;;2.83;1.10;;;;;;;12.47;95.87;97736.22;4155149;28;20359;-48
2023/03/23 04:37:30;;;;;;;1.02;1.02;;;;;;;12.51;95.99;97752.94;4191092;28;20199;-48
2023/03/23 04:39:33;;;;;;;1.25;1.15;;;;;;;12.46;96.53;97751.06;4189396;28;20204;-51
2023/03/23 04:41:37;;;;;;;2.88;1.30;;;;;;;12.49;97.05;97760.63;4149875;28;20741;-48
2023/03/23 04:43:42;;;;;;;3.90;1.60;;;;;;;12.33;98.12;97756.31;4202165;28;20249;-48
2023/03/23 04:45:45;;;;;;;1.77;1.52;;;;;;;12.30;99.01;97765.09;4172334;28;20224;-49
2023/03/23 04:47:57;;;;;;;1.20;1.10;;;;;;;12.33;100.00;97762.63;4186874;28;20210;-50
2023/03/23 04:50:01;;;;;;;1.98;1.58;;;;;;;12.30;100.00;97762.38;4183837;28;20211;-48
2023/03/23 04:52:03;;;;;;;2.53;1.20;;;;;;;12.19;100.00;97768.97;4181429;28;20740;-49
2023/03/23 04:54:07;;;;;;;0.95;0.93;;;;;;;12.14;100.00;97769.81;4167437;28;21086;-49
2023/03/23 04:56:13;;;;;;;2.22;1.33;;;;;;;12.09;100.00;97761.59;4167176;28;20295;-49
2023/03/23 04:58:18;;;;;;;1.45;1.30;;;;;;;12.09;100.00;97767.06;4180062;28;20199;-49
2023/03/23 05:00:21;;;;;;;1.30;1.20;;;;;;;12.08;100.00;97759.13;4203987;28;20234;-51
2023/03/23 05:02:25;;;;;;;1.23;1.13;;;;;;;12.03;100.00;97756.41;4182957;28;20299;-52
2023/03/23 05:04:27;;;;;;;1.85;1.20;;;;;;;12.04;100.00;97756.09;4183413;28;21479;-51
2023/03/23 05:06:29;;;;;;;1.40;1.20;;;;;;;12.00;100.00;97745.97;4188235;28;20287;-51
2023/03/23 05:08:31;;;;;;;1.40;1.13;;;;;;;11.91;100.00;97748.47;4183853;28;20203;-50
2023/03/23 05:10:36;;;;;;;1.88;1.40;;;;;;;11.94;100.00;97747.91;4185599;28;20199;-47
2023/03/23 05:12:39;;;;;;;1.42;1.33;;;;;;;12.03;100.00;97749.00;4187373;28;20199;-49
2023/03/23 05:14:43;;;;;;;8.82;1.38;;;;;;;12.06;100.00;97744.88;4186157;28;20223;-49
2023/03/23 05:16:48;;;;;;;1.52;1.42;;;;;;;12.06;100.00;97748.44;4189303;28;20191;-49
2023/03/23 05:18:51;;;;;;;1.88;1.25;;;;;;;12.05;100.00;97755.00;4188923;28;20230;-49
2023/03/23 05:20:59;;;;;;;1.52;1.00;;;;;;;11.93;100.00;97757.25;4205144;28;20638;-49
2023/03/23 05:23:02;;;;;;;1.20;1.10;;;;;;;12.04;100.00;97753.38;4170004;28;20725;-50
2023/03/23 05:25:08;;;;;;;1.70;1.60;;;;;;;11.98;100.00;97757.22;4185157;28;20227;-48
2023/03/23 05:27:12;;;;;;;1.17;1.02;;;;;;;12.00;100.00;97752.28;4176012;28;20210;-48
2023/03/23 05:29:15;;;;;;;2.42;1.13;;;;;;;12.06;100.00;97756.69;4185066;28;20747;-48
2023/03/23 05:31:20;;;;;;;1.65;0.98;;;;;;;12.12;100.00;97761.03;4184946;28;20195;-48
2023/03/23 05:33:23;;;;;;;1.73;1.17;;;;;;;12.07;100.00;97752.00;4187586;28;20204;-48
2023/03/23 05:35:29;;;;;;;2.58;1.40;;;;;;;11.88;100.00;97760.00;4171759;28;20200;-48
2023/03/23 05:37:33;;;;;;;1.67;1.45;;;;;;;11.84;100.00;97758.88;4186071;28;20304;-48
2023/03/23 05:39:37;;;;;;;0.90;0.90;;;;;;;11.97;100.00;97765.75;4181918;28;20207;-50
2023/03/23 05:41:39;;;;;;;2.15;1.30;;;;;;;11.92;100.00;97761.06;4187227;28;20203;-49
2023/03/23 05:43:45;;;;;;;5.90;1.52;;;;;;;11.99;100.00;97761.63;4173001;28;20279;-52
2023/03/23 05:45:53;;;;;;;2.38;1.33;;;;;;;11.79;100.00;97764.41;4171497;28;20204;-48
2023/03/23 05:47:57;;;;;;;1.65;1.45;;;;;;;11.66;100.00;97764.13;4188231;28;20226;-51
2023/03/23 05:50:00;;;;;;;1.67;1.50;;;;;;;11.80;100.00;97771.53;4187435;28;20230;-51
2023/03/23 05:52:04;;;;;;;2.72;2.10;;;;;;;11.76;100.00;97767.69;4191831;28;20199;-50
2023/03/23 05:54:07;;;;;;;1.70;1.60;;;;;;;11.79;100.00;97772.63;4192604;28;20243;-53
2023/03/23 05:56:09;;;;;;;2.20;2.00;;;;;;;11.78;100.00;97775.63;4157152;28;20693;-51
2023/03/23 05:58:10;;;;;;;2.83;1.90;;;;;;;11.83;100.00;97778.38;4184235;28;20227;-51
2023/03/23 06:00:19;;;;;;;2.22;1.45;;;;;;;11.86;100.00;97778.66;4190661;28;20199;-49
2023/03/23 06:02:24;;;;;;;2.00;1.52;;;;;;;11.58;100.00;97778.38;4188030;28;20414;-50
2023/03/23 06:04:27;;;;;;;2.35;1.60;;;;;;;11.47;100.00;97776.69;4173119;28;20246;-48
2023/03/23 06:06:31;;;;;;;5.15;1.48;;;;;;;11.48;100.00;97781.91;4155917;28;20268;-50
2023/03/23 06:08:37;;;;;;;1.50;1.40;;;;;;;11.39;100.00;97783.56;4212044;28;20571;-51
2023/03/23 06:10:39;;;;;;;4.45;1.90;;;;;;;11.43;100.00;97784.66;4204349;28;20201;-50
2023/03/23 06:12:43;;;;;;;1.92;1.27;;;;;;;11.30;100.00;97779.69;4170639;28;20323;-49
2023/03/23 06:15:09;;;;;;;4.00;1.60;;;;;;;11.18;100.00;97781.88;4186911;28;20211;-50
2023/03/23 06:18:29;;;;;;;2.15;1.50;;;;;;;11.15;100.00;97787.06;4190506;28;20203;-49
2023/03/23 06:21:12;;;;;;;3.25;1.55;;;;;;;11.23;100.00;97801.06;4171959;28;20290;-50
2023/03/23 06:23:21;;;;;;;1.90;1.60;;;;;;;11.21;100.00;97814.22;4192491;28;20190;-52
2023/03/23 06:25:30;;;;;;;3.70;2.03;;;;;;;11.24;100.00;97801.91;4185203;28;20215;-50
2023/03/23 06:27:38;;;;;;;1.90;1.70;;;;;;;11.12;100.00;97798.59;4173826;28;20211;-50
2023/03/23 06:29:48;;;;;;;1.80;1.70;;;;;;;11.13;100.00;97800.22;4190151;28;20192;-50
2023/03/23 06:32:03;;;;;;;3.33;1.63;;;;;;;11.16;100.00;97799.66;4175006;28;20194;-49
2023/03/23 06:34:11;;;;;;;2.20;1.63;;;;;;;11.19;100.00;97799.97;4186841;28;20210;-52
2023/03/23 06:36:18;;;;;;;1.52;1.42;;;;;;;11.15;100.00;97814.44;4187204;28;20204;-50
2023/03/23 06:38:35;;;;;;;1.80;1.45;;;;;;;11.27;100.00;97818.59;4174814;28;20196;-49
2023/03/23 06:40:51;;;;;;;1.40;1.30;;;;;;;11.29;100.00;97816.41;4176886;28;20236;-50
2023/03/23 06:43:09;;;;;;;4.85;1.65;;;;;;;11.23;100.00;97822.16;4188909;28;20203;-51
2023/03/23 06:45:19;;;;;;;1.90;1.80;;;;;;;11.30;100.00;97815.31;4174809;28;20252;-52
2023/03/23 06:47:26;;;;;;;1.45;1.35;;;;;;;11.26;100.00;97816.13;4173179;28;20196;-50
2023/03/23 06:49:32;;;;;;;2.25;1.70;;;;;;;11.26;100.00;97819.69;4190374;28;20232;-50
2023/03/23 06:51:42;;;;;;;1.60;1.50;;;;;;;11.31;100.00;97816.94;4183064;28;20192;-50
2023/03/23 06:53:52;;;;;;;2.25;1.88;;;;;;;11.21;100.00;97829.81;4169626;28;20215;-48
2023/03/23 06:56:11;;;;;;;3.35;1.40;;;;;;;11.21;100.00;97827.91;4171850;28;20228;-51
2023/03/23 06:58:18;;;;;;;1.70;1.60;;;;;;;11.21;100.00;97825.16;4192503;28;20340;-50
2023/03/23 07:00:44;;;;;;;1.63;1.45;;;;;;;11.28;100.00;97830.38;4191421;28;20213;-51
2023/03/23 07:03:01;;;;;;;3.15;1.58;;;;;;;11.18;100.00;97825.69;4189064;28;20188;-50
2023/03/23 07:05:11;;;;;;;2.17;2.03;;;;;;;11.25;100.00;97826.25;4177200;28;20793;-49
2023/03/23 07:07:18;;;;;;;4.63;1.83;;;;;;;11.23;100.00;97825.69;4177395;28;20203;-49
2023/03/23 07:09:31;;;;;;;2.88;1.63;;;;;;;11.16;100.00;97827.03;4173620;28;20218;-52
2023/03/23 07:11:35;;;;;;;1.50;1.40;;;;;;;11.24;100.00;97824.59;4168698;28;20592;-50
2023/03/23 07:13:43;;;;;;;2.03;1.40;;;;;;;11.20;100.00;97833.63;4192857;28;20818;-52
2023/03/23 07:15:51;;;;;;;3.38;1.55;;;;;;;11.21;100.00;97836.13;4183098;28;20250;-50
2023/03/23 07:18:00;;;;;;;1.63;1.52;;;;;;;11.13;100.00;97836.66;4159492;28;20199;-51
2023/03/23 07:20:08;;;;;;;2.38;1.58;;;;;;;11.16;100.00;97838.84;4172690;28;20845;-49
2023/03/23 07:22:11;;;;;;;2.05;1.83;;;;;;;11.19;100.00;97840.22;4169319;28;21019;-49
2023/03/23 07:24:15;;;;;;;3.15;1.75;;;;;;;11.14;100.00;97851.97;4189053;28;20231;-51
2023/03/23 07:26:19;;;;;;;2.22;1.88;;;;;;;11.16;100.00;97843.47;4187351;28;22258;-49
2023/03/23 07:28:22;;;;;;;2.28;1.70;;;;;;;11.19;100.00;97846.53;4187548;28;20238;-51
2023/03/23 07:30:26;;;;;;;1.90;1.80;;;;;;;11.27;100.00;97846.00;4189845;28;20208;-49
2023/03/23 07:32:31;;;;;;;2.92;1.92;;;;;;;11.28;100.00;97844.91;4192083;28;20196;-49
2023/03/23 07:34:41;;;;;;;2.53;1.70;;;;;;;11.24;100.00;97845.72;4191614;28;20222;-50
2023/03/23 07:36:43;;;;;;;2.65;1.80;;;;;;;11.27;100.00;97850.63;4189282;28;20199;-50
2023/03/23 07:38:46;;;;;;;5.43;1.67;;;;;;;11.37;100.00;97853.41;4194787;28;20614;-50
2023/03/23 07:40:49;;;;;;;2.50;1.40;;;;;;;11.32;100.00;97843.25;4174652;28;20298;-50
2023/03/23 07:42:56;;;;;;;2.40;2.00;;;;;;;11.38;100.00;97847.63;4190684;28;20213;-50
2023/03/23 07:45:00;;;;;;;1.60;1.50;;;;;;;11.38;100.00;97844.91;4194728;28;20219;-50
2023/03/23 07:47:05;;;;;;;2.08;1.60;;;;;;;11.40;100.00;97845.47;4194186;28;20599;-49
2023/03/23 07:49:10;;;;;;;2.50;1.88;;;;;;;11.41;100.00;97847.13;4169632;28;20255;-48
2023/03/23 07:51:16;;;;;;;1.77;1.67;;;;;;;11.45;100.00;97848.19;4190931;28;20708;-49
2023/03/23 07:53:22;;;;;;;2.60;1.60;;;;;;;11.54;100.00;97857.53;4193494;28;20199;-48
2023/03/23 07:55:30;;;;;;;1.50;1.40;;;;;;;11.61;100.00;97851.81;4193175;28;20255;-49
2023/03/23 07:57:34;;;;;;;1.48;1.27;;;;;;;11.62;100.00;97858.94;4185562;28;20208;-50
2023/03/23 07:59:37;;;;;;;1.55;1.45;;;;;;;11.57;100.00;97862.47;4160417;28;20204;-49
2023/03/23 08:01:41;;;;;;;1.48;1.35;;;;;;;11.56;100.00;97865.50;4174971;28;20208;-49
2023/03/23 08:03:51;;;;;;;2.03;1.48;;;;;;;11.59;100.00;97871.28;4173437;28;20228;-49
2023/03/23 08:06:08;;;;;;;1.65;1.55;;;;;;;11.57;100.00;97869.88;4151017;28;20308;-49
2023/03/23 08:08:24;;;;;;;1.70;1.35;;;;;;;11.72;100.00;97876.19;4152347;28;20216;-49
2023/03/23 08:10:36;;;;;;;1.98;1.77;;;;;;;11.85;100.00;97875.66;4165583;28;20200;-49
2023/03/23 08:12:41;;;;;;;1.83;1.73;;;;;;;11.88;100.00;97886.09;4183937;28;20203;-49
2023/03/23 08:14:56;;;;;;;2.83;1.60;;;;;;;11.92;100.00;97881.69;4169068;28;20229;-49
2023/03/23 08:17:00;;;;;;;1.70;1.60;;;;;;;12.00;100.00;97892.13;4170284;28;20226;-49
2023/03/23 08:19:04;;;;;;;1.55;1.20;;;;;;;11.99;100.00;97892.41;4166749;28;20801;-51
2023/03/23 08:21:09;;;;;;;1.33;1.10;;;;;;;11.97;100.00;97895.41;4167619;28;20657;-50
2023/03/23 08:23:11;;;;;;;1.80;1.48;;;;;;;11.97;100.00;97905.56;4166293;28;20193;-50
2023/03/23 08:25:18;;;;;;;1.30;1.20;;;;;;;12.00;100.00;97905.84;4168067;28;20282;-50
2023/03/23 08:27:21;;;;;;;1.83;1.20;;;;;;;12.06;100.00;97892.94;4201669;28;20225;-49
2023/03/23 08:29:24;;;;;;;1.58;1.48;;;;;;;12.12;100.00;97906.38;4170466;28;20196;-51
2023/03/23 08:31:33;;;;;;;1.60;1.50;;;;;;;12.10;100.00;97907.78;4152727;28;20208;-51
2023/03/23 08:34:05;;;;;;;1.40;1.30;;;;;;;12.11;100.00;97907.47;4168116;28;20220;-49
2023/03/23 08:36:08;;;;;;;1.70;1.60;;;;;;;12.13;100.00;97910.78;4168329;28;20200;-50
2023/03/23 08:38:13;;;;;;;1.50;1.10;;;;;;;12.06;100.00;97915.72;4168504;28;20207;-50
2023/03/23 08:40:19;;;;;;;2.03;1.13;;;;;;;12.08;100.00;97907.19;4173591;28;20662;-50
2023/03/23 08:42:31;;;;;;;1.30;1.02;;;;;;;12.12;100.00;97902.81;4168267;28;20670;-49
2023/03/23 08:44:35;;;;;;;1.88;1.27;;;;;;;12.07;100.00;97914.63;4177282;28;20223;-49
2023/03/23 08:46:39;;;;;;;1.30;1.20;;;;;;;12.03;100.00;97920.94;4174897;28;20196;-49
2023/03/23 08:48:43;;;;;;;3.90;1.42;;;;;;;11.94;100.00;97926.13;4171068;28;20278;-50
2023/03/23 08:50:47;;;;;;;1.17;1.08;;;;;;;11.89;100.00;97923.38;4201651;28;20195;-49
2023/03/23 08:52:53;;;;;;;1.25;1.15;;;;;;;11.91;100.00;97929.41;4183329;28;20203;-49
2023/03/23 08:54:58;;;;;;;1.55;1.40;;;;;;;11.77;100.00;97927.50;4167890;28;20234;-49
2023/03/23 08:57:02;;;;;;;1.27;1.20;;;;;;;11.83;100.00;97932.69;4169476;28;20210;-51
2023/03/23 08:59:06;;;;;;;1.73;1.10;;;;;;;11.83;100.00;97949.13;4152063;28;20204;-51
2023/03/23 09:01:16;;;;;;;1.25;1.15;;;;;;;11.74;100.00;97945.31;4168354;28;20192;-51
2023/03/23 09:03:19;;;;;;;1.65;1.20;;;;;;;11.64;100.00;97939.78;4152108;28;20677;-52
2023/03/23 09:05:24;;;;;;;1.65;1.30;;;;;;;11.62;100.00;97925.53;4168941;28;20295;-51
2023/03/23 09:07:27;;;;;;;2.75;1.10;;;;;;;11.54;100.00;97934.25;4173897;28;20199;-53
2023/03/23 09:09:33;;;;;;;1.55;1.40;;;;;;;11.62;100.00;97944.72;4169407;28;20791;-50
2023/03/23 09:11:37;;;;;;;1.23;1.10;;;;;;;11.59;100.00;97942.53;4169154;28;20564;-49
2023/03/23 09:13:44;;;;;;;3.67;1.40;;;;;;;11.57;100.00;97939.19;4160273;28;20247;-49
2023/03/23 09:15:48;;;;;;;4.07;1.20;;;;;;;11.64;100.00;97942.53;4188086;28;20202;-51
2023/03/23 09:17:56;;;;;;;1.52;1.40;;;;;;;11.67;100.00;97939.25;4170016;28;20197;-52
2023/03/23 09:19:59;;;;;;;1.15;1.05;;;;;;;11.70;100.00;97948.84;4170560;28;20616;-49
2023/03/23 09:22:03;;;;;;;3.47;1.52;;;;;;;12.01;100.00;97940.41;4169370;28;20254;-50
2023/03/23 09:24:07;;;;;;;2.08;1.33;;;;;;;12.10;100.00;97926.97;4177015;28;20311;-51
2023/03/23 09:26:12;;;;;;;2.17;1.98;;;;;;;12.36;100.00;97923.94;4155831;28;20199;-50
2023/03/23 09:28:15;;;;;;;1.55;1.45;;;;;;;12.31;100.00;97928.59;4172362;28;20206;-49
2023/03/23 09:30:19;;;;;;;1.65;1.50;;;;;;;12.55;100.00;97933.25;4169389;28;20970;-50
2023/03/23 09:32:23;;;;;;;1.70;1.60;;;;;;;12.69;100.00;97937.06;4170847;28;20227;-49
2023/03/23 09:34:26;;;;;;;5.47;2.10;;;;;;;12.87;100.00;97930.97;4173476;28;20213;-50
2023/03/23 09:36:31;;;;;;;2.08;1.55;;;;;;;13.07;100.00;97930.13;4168932;28;20219;-49
2023/03/23 09:38:36;;;;;;;1.73;1.20;;;;;;;12.96;100.00;97932.06;4171252;28;20185;-50
2023/03/23 09:40:48;;;;;;;1.20;1.10;;;;;;;12.98;100.00;97929.84;4171668;28;21544;-49
2023/03/23 09:43:09;;;;;;;1.30;1.20;;;;;;;12.96;100.00;97932.06;4175439;28;20238;-48
2023/03/23 09:45:38;;;;;;;1.40;1.30;;;;;;;12.81;100.00;97928.50;4170063;28;20248;-49
2023/03/23 09:48:11;;;;;;;1.83;1.30;;;;;;;12.77;100.00;97928.25;4166088;28;20212;-50
2023/03/23 09:50:23;;;;;;;6.85;1.73;;;;;;;12.73;100.00;97931.84;4172414;28;20203;-50
2023/03/23 09:52:47;;;;;;;2.92;1.38;;;;;;;12.57;100.00;97939.25;4188275;28;20228;-51
2023/03/23 09:54:55;;;;;;;2.95;1.25;;;;;;;12.35;100.00;97930.50;4168988;28;20354;-49